createdAt,value
2022-10-18T00:00:11.961Z,26.02
2022-10-18T00:01:14.447Z,26.00
2022-10-18T00:02:16.926Z,24.73
2022-10-18T00:03:19.488Z,25.15
2022-10-18T00:04:21.840Z,25.25
2022-10-18T00:05:24.052Z,25.10
2022-10-18T00:06:26.393Z,26.98
2022-10-18T00:07:29.207Z,25.23
2022-10-18T00:08:32.282Z,25.48
2022-10-18T00:09:34.879Z,26.10
2022-10-18T00:10:37.199Z,25.02
2022-10-18T00:11:39.705Z,25.25
2022-10-18T00:12:41.969Z,24.25
2022-10-18T00:13:44.687Z,25.92
2022-10-18T00:14:50.835Z,24.42
2022-10-18T00:16:09.887Z,23.77
2022-10-18T00:17:12.376Z,22.48
2022-10-18T00:18:15.431Z,23.85
2022-10-18T00:19:17.625Z,22.55
2022-10-18T00:20:19.926Z,24.67
2022-10-18T00:21:24.426Z,23.75
2022-10-18T00:22:26.751Z,24.42
2022-10-18T00:23:30.732Z,24.77
2022-10-18T00:24:32.957Z,24.02
2022-10-18T00:25:35.361Z,24.33
2022-10-18T00:26:37.605Z,24.02
2022-10-18T00:27:39.779Z,22.20
2022-10-18T00:28:42.665Z,24.08
2022-10-18T00:29:45.381Z,25.15
2022-10-18T00:30:47.828Z,24.58
2022-10-18T00:31:50.211Z,26.08
2022-10-18T00:32:52.440Z,27.08
2022-10-18T00:33:57.130Z,26.92
2022-10-18T00:34:59.530Z,27.55
2022-10-18T00:36:01.819Z,24.35
2022-10-18T00:37:04.081Z,27.40
2022-10-18T00:38:06.344Z,27.60
2022-10-18T00:39:11.918Z,26.58
2022-10-18T00:40:14.536Z,25.95
2022-10-18T00:41:20.088Z,27.10
2022-10-18T00:42:25.480Z,26.92
2022-10-18T00:43:27.738Z,27.42
2022-10-18T00:44:29.917Z,25.88
2022-10-18T00:45:32.305Z,27.55
2022-10-18T00:46:36.716Z,26.67
2022-10-18T00:47:38.974Z,26.25
2022-10-18T00:48:41.200Z,25.83
2022-10-18T00:49:47.826Z,27.90
2022-10-18T00:50:52.543Z,26.67
2022-10-18T00:52:00.900Z,26.25
2022-10-18T00:53:06.945Z,27.35
2022-10-18T00:54:09.110Z,26.98
2022-10-18T00:55:11.885Z,26.98
2022-10-18T00:56:14.494Z,25.95
2022-10-18T00:57:17.503Z,28.08
2022-10-18T00:58:20.258Z,27.92
2022-10-18T00:59:23.585Z,27.95
2022-10-18T01:00:25.940Z,26.30
2022-10-18T01:01:28.653Z,27.05
2022-10-18T01:02:32.446Z,25.40
2022-10-18T01:03:36.504Z,26.45
2022-10-18T01:04:38.807Z,28.25
2022-10-18T01:05:46.521Z,27.23
2022-10-18T01:07:09.214Z,28.83
2022-10-18T01:08:11.355Z,27.15
2022-10-18T01:09:13.547Z,27.75
2022-10-18T01:10:29.827Z,27.67
2022-10-18T01:12:28.922Z,27.52
2022-10-18T01:13:46.009Z,26.77
2022-10-18T01:14:57.045Z,27.73
2022-10-18T01:16:08.311Z,28.30
2022-10-18T01:17:19.532Z,28.63
2022-10-18T01:19:00.697Z,27.67
2022-10-18T01:20:19.155Z,27.58
2022-10-18T01:21:42.777Z,27.77
2022-10-18T01:22:50.779Z,28.27
2022-10-18T01:24:08.157Z,26.05
2022-10-18T01:25:29.901Z,27.00
2022-10-18T01:26:50.924Z,27.73
2022-10-18T01:28:12.527Z,28.42
2022-10-18T01:29:26.636Z,27.58
2022-10-18T01:30:37.789Z,28.10
2022-10-18T01:31:46.517Z,25.75
2022-10-18T01:32:52.696Z,28.17
2022-10-18T01:35:14.966Z,24.75
2022-10-18T01:36:32.884Z,28.73
2022-10-18T01:37:36.311Z,25.88
2022-10-18T01:38:40.628Z,27.25
2022-10-18T01:39:46.615Z,24.50
2022-10-18T01:40:50.904Z,26.08
2022-10-18T01:41:55.474Z,27.73
2022-10-18T01:42:57.856Z,27.00
2022-10-18T01:44:03.078Z,27.63
2022-10-18T01:45:08.229Z,28.92
2022-10-18T01:46:13.747Z,24.95
2022-10-18T01:47:18.046Z,27.25
2022-10-18T01:48:20.314Z,27.33
2022-10-18T01:49:23.121Z,26.25
2022-10-18T01:50:30.696Z,27.30
2022-10-18T01:51:34.156Z,26.98
2022-10-18T01:52:36.348Z,26.15
2022-10-18T01:53:38.630Z,28.05
2022-10-18T01:54:44.813Z,25.45
2022-10-18T01:56:04.236Z,25.92
2022-10-18T01:57:12.494Z,26.15
2022-10-18T01:58:32.911Z,26.25
2022-10-18T01:59:50.144Z,26.13
2022-10-18T02:01:03.644Z,25.33
2022-10-18T02:02:08.659Z,25.83
2022-10-18T02:03:24.124Z,26.45
2022-10-18T02:04:49.539Z,26.50
2022-10-18T02:05:58.509Z,26.08
2022-10-18T02:07:17.625Z,24.52
2022-10-18T02:08:34.918Z,24.80
2022-10-18T02:09:43.131Z,23.27
2022-10-18T02:10:49.046Z,24.40
2022-10-18T02:11:55.238Z,25.55
2022-10-18T02:12:58.888Z,24.88
2022-10-18T02:14:07.306Z,23.58
2022-10-18T02:15:12.298Z,25.13
2022-10-18T02:16:20.139Z,24.45
2022-10-18T02:17:28.235Z,24.45
2022-10-18T02:18:37.191Z,24.65
2022-10-18T02:19:46.469Z,24.67
2022-10-18T02:20:49.638Z,23.17
2022-10-18T02:21:54.076Z,25.17
2022-10-18T02:22:59.222Z,22.23
2022-10-18T02:24:02.971Z,23.80
2022-10-18T02:25:10.538Z,25.02
2022-10-18T02:26:14.438Z,24.38
2022-10-18T02:27:17.263Z,24.73
2022-10-18T02:28:20.422Z,23.08
2022-10-18T02:29:23.237Z,23.95
2022-10-18T02:30:34.423Z,24.17
2022-10-18T02:31:43.795Z,23.15
2022-10-18T02:32:55.797Z,24.20
2022-10-18T02:34:04.941Z,23.80
2022-10-18T02:35:34.533Z,24.02
2022-10-18T02:36:46.973Z,23.63
2022-10-18T02:37:51.000Z,23.27
2022-10-18T02:38:57.097Z,24.92
2022-10-18T02:39:59.562Z,25.30
2022-10-18T02:41:01.971Z,25.63
2022-10-18T02:42:09.589Z,24.90
2022-10-18T02:43:11.829Z,22.70
2022-10-18T02:44:13.962Z,24.63
2022-10-18T02:45:17.285Z,23.60
2022-10-18T02:46:20.854Z,23.92
2022-10-18T02:47:23.053Z,24.80
2022-10-18T02:48:25.568Z,25.10
2022-10-18T02:49:28.284Z,24.60
2022-10-18T02:50:30.619Z,22.50
2022-10-18T02:51:33.190Z,23.50
2022-10-18T02:52:35.471Z,24.70
2022-10-18T02:53:37.949Z,25.20
2022-10-18T02:54:40.261Z,25.23
2022-10-18T02:55:42.580Z,24.42
2022-10-18T02:56:44.797Z,24.13
2022-10-18T02:57:46.974Z,25.08
2022-10-18T02:58:49.320Z,26.40
2022-10-18T02:59:51.584Z,25.15
2022-10-18T03:00:53.867Z,23.20
2022-10-18T03:01:56.184Z,24.45
2022-10-18T03:02:58.461Z,25.48
2022-10-18T03:04:00.658Z,23.85
2022-10-18T03:05:03.190Z,24.15
2022-10-18T03:06:05.743Z,24.20
2022-10-18T03:07:08.140Z,25.08
2022-10-18T03:08:10.413Z,24.65
2022-10-18T03:09:12.728Z,24.58
2022-10-18T03:10:15.220Z,26.13
2022-10-18T03:11:17.390Z,25.52
2022-10-18T03:12:19.736Z,24.98
2022-10-18T03:13:22.367Z,24.88
2022-10-18T03:14:24.704Z,26.08
2022-10-18T03:15:27.012Z,24.08
2022-10-18T03:16:29.248Z,25.10
2022-10-18T03:17:31.622Z,24.27
2022-10-18T03:18:34.176Z,23.90
2022-10-18T03:19:36.395Z,24.67
2022-10-18T03:20:38.600Z,24.67
2022-10-18T03:21:40.763Z,24.77
2022-10-18T03:22:42.950Z,22.60
2022-10-18T03:23:45.306Z,23.92
2022-10-18T03:24:47.563Z,25.08
2022-10-18T03:25:49.895Z,23.83
2022-10-18T03:26:52.168Z,23.55
2022-10-18T03:27:54.404Z,23.52
2022-10-18T03:28:57.544Z,23.08
2022-10-18T03:30:01.131Z,24.65
2022-10-18T03:31:04.962Z,25.13
2022-10-18T03:32:07.576Z,23.58
2022-10-18T03:33:09.885Z,22.85
2022-10-18T03:34:12.139Z,23.60
2022-10-18T03:35:14.430Z,23.00
2022-10-18T03:36:16.845Z,22.75
2022-10-18T03:37:19.133Z,24.35
2022-10-18T03:38:21.366Z,22.80
2022-10-18T03:39:23.649Z,22.85
2022-10-18T03:40:25.973Z,23.63
2022-10-18T03:41:29.049Z,23.58
2022-10-18T03:42:31.621Z,21.55
2022-10-18T03:43:34.138Z,22.67
2022-10-18T03:44:36.344Z,22.98
2022-10-18T03:45:39.723Z,23.42
2022-10-18T03:46:41.928Z,21.48
2022-10-18T03:47:44.330Z,23.65
2022-10-18T03:48:46.559Z,22.90
2022-10-18T03:49:51.954Z,22.52
2022-10-18T03:50:57.049Z,23.42
2022-10-18T03:51:59.223Z,22.75
2022-10-18T03:53:01.505Z,22.52
2022-10-18T03:54:04.002Z,24.10
2022-10-18T03:55:06.857Z,22.77
2022-10-18T03:56:09.056Z,21.58
2022-10-18T03:57:11.237Z,25.23
2022-10-18T03:58:13.487Z,24.90
2022-10-18T03:59:17.282Z,23.73
2022-10-18T04:00:19.856Z,24.10
2022-10-18T04:01:22.217Z,23.55
2022-10-18T04:02:26.227Z,24.80
2022-10-18T04:03:28.603Z,27.65
2022-10-18T04:04:31.017Z,25.65
2022-10-18T04:05:34.601Z,24.10
2022-10-18T04:06:37.019Z,26.02
2022-10-18T04:07:39.270Z,25.77
2022-10-18T04:08:43.673Z,23.98
2022-10-18T04:09:45.874Z,24.90
2022-10-18T04:10:48.514Z,24.48
2022-10-18T04:11:51.771Z,24.13
2022-10-18T04:12:54.002Z,23.17
2022-10-18T04:13:56.309Z,24.83
2022-10-18T04:14:58.467Z,24.08
2022-10-18T04:16:00.754Z,24.48
2022-10-18T04:17:04.950Z,24.00
2022-10-18T04:18:10.042Z,24.75
2022-10-18T04:19:12.332Z,23.70
2022-10-18T04:20:14.806Z,24.40
2022-10-18T04:21:17.125Z,24.63
2022-10-18T04:22:19.402Z,23.40
2022-10-18T04:23:21.804Z,24.02
2022-10-18T04:24:24.353Z,23.67
2022-10-18T04:25:26.689Z,22.75
2022-10-18T04:26:29.073Z,29.80
2022-10-18T04:27:31.572Z,27.92
2022-10-18T04:28:35.696Z,27.95
2022-10-18T04:29:38.042Z,27.35
2022-10-18T04:30:40.247Z,29.63
2022-10-18T04:31:42.900Z,31.73
2022-10-18T04:32:45.138Z,29.20
2022-10-18T04:33:47.391Z,29.90
2022-10-18T04:34:49.680Z,28.63
2022-10-18T04:35:53.707Z,30.40
2022-10-18T04:36:55.976Z,29.35
2022-10-18T04:37:58.158Z,28.10
2022-10-18T04:39:00.737Z,29.05
2022-10-18T04:40:04.386Z,25.60
2022-10-18T04:41:06.673Z,26.10
2022-10-18T04:42:08.862Z,23.65
2022-10-18T04:43:11.171Z,22.52
2022-10-18T04:44:13.506Z,23.30
2022-10-18T04:45:16.066Z,25.30
2022-10-18T04:46:18.395Z,24.80
2022-10-18T04:47:20.767Z,21.48
2022-10-18T04:48:23.103Z,22.92
2022-10-18T04:49:25.582Z,21.88
2022-10-18T04:50:28.051Z,21.27
2022-10-18T04:51:32.389Z,20.80
2022-10-18T04:52:34.788Z,20.27
2022-10-18T04:53:37.042Z,20.15
2022-10-18T04:54:39.202Z,22.17
2022-10-18T04:55:48.028Z,24.88
2022-10-18T04:56:50.255Z,21.17
2022-10-18T04:57:53.187Z,21.85
2022-10-18T04:58:55.598Z,21.05
2022-10-18T04:59:58.468Z,23.48
2022-10-18T05:01:00.826Z,21.45
2022-10-18T05:03:13.054Z,22.00
2022-10-18T05:04:15.460Z,22.98
2022-10-18T05:05:17.802Z,23.63
2022-10-18T05:06:21.228Z,24.10
2022-10-18T05:07:23.430Z,24.70
2022-10-18T05:08:28.371Z,25.77
2022-10-18T05:09:30.500Z,22.45
2022-10-18T05:10:32.911Z,23.33
2022-10-18T05:11:35.208Z,23.90
2022-10-18T05:12:37.477Z,22.90
2022-10-18T05:13:39.833Z,23.90
2022-10-18T05:14:42.219Z,23.77
2022-10-18T05:15:47.439Z,23.27
2022-10-18T05:16:49.799Z,25.60
2022-10-18T05:17:52.003Z,24.67
2022-10-18T05:18:55.136Z,25.55
2022-10-18T05:19:58.513Z,25.35
2022-10-18T05:21:19.466Z,27.20
2022-10-18T05:22:22.811Z,25.80
2022-10-18T05:23:25.467Z,25.30
2022-10-18T05:24:27.996Z,26.48
2022-10-18T05:25:30.539Z,25.25
2022-10-18T05:26:32.976Z,26.55
2022-10-18T05:27:35.419Z,25.45
2022-10-18T05:28:40.388Z,25.73
2022-10-18T05:29:43.235Z,26.23
2022-10-18T05:30:45.472Z,25.48
2022-10-18T05:31:53.531Z,26.35
2022-10-18T05:32:55.831Z,26.45
2022-10-18T05:33:58.118Z,26.83
2022-10-18T05:35:00.326Z,25.70
2022-10-18T05:36:02.617Z,27.05
2022-10-18T05:37:05.289Z,27.35
2022-10-18T05:38:08.012Z,28.65
2022-10-18T05:39:10.250Z,29.00
2022-10-18T05:40:12.688Z,29.20
2022-10-18T05:41:15.311Z,29.23
2022-10-18T05:42:17.647Z,28.52
2022-10-18T05:43:19.942Z,27.33
2022-10-18T05:44:22.432Z,27.20
2022-10-18T05:45:24.875Z,28.95
2022-10-18T05:46:27.136Z,27.02
2022-10-18T05:47:29.549Z,26.58
2022-10-18T05:48:32.525Z,28.73
2022-10-18T05:49:34.837Z,28.15
2022-10-18T05:50:39.599Z,31.85
2022-10-18T05:51:43.440Z,30.67
2022-10-18T05:52:45.792Z,29.92
2022-10-18T05:53:48.291Z,28.85
2022-10-18T05:54:50.615Z,29.48
2022-10-18T05:55:52.904Z,30.58
2022-10-18T05:57:04.339Z,30.05
2022-10-18T05:58:06.988Z,31.35
2022-10-18T05:59:12.629Z,29.98
2022-10-18T06:00:15.489Z,31.45
2022-10-18T06:01:18.749Z,32.85
2022-10-18T06:02:21.118Z,33.25
2022-10-18T06:03:23.380Z,34.15
2022-10-18T06:04:26.054Z,35.65
2022-10-18T06:05:28.970Z,35.72
2022-10-18T06:06:32.682Z,36.05
2022-10-18T06:07:36.033Z,35.00
2022-10-18T06:08:39.608Z,35.42
2022-10-18T06:09:42.547Z,35.08
2022-10-18T06:10:44.856Z,35.25
2022-10-18T06:11:47.187Z,35.45
2022-10-18T06:12:49.398Z,41.03
2022-10-18T06:13:52.723Z,37.78
2022-10-18T06:14:54.995Z,35.42
2022-10-18T06:16:00.275Z,33.42
2022-10-18T06:17:02.645Z,36.28
2022-10-18T06:18:04.961Z,41.55
2022-10-18T06:19:07.401Z,39.65
2022-10-18T06:20:09.994Z,40.22
2022-10-18T06:21:12.226Z,53.25
2022-10-18T06:22:14.498Z,49.53
2022-10-18T06:23:16.872Z,41.05
2022-10-18T06:24:37.747Z,46.97
2022-10-18T06:25:40.117Z,43.08
2022-10-18T06:26:42.367Z,41.22
2022-10-18T06:27:44.681Z,41.78
2022-10-18T06:28:47.151Z,41.33
2022-10-18T06:29:49.430Z,37.78
2022-10-18T06:30:51.635Z,40.67
2022-10-18T06:31:53.896Z,40.03
2022-10-18T06:33:01.568Z,38.70
2022-10-18T06:34:04.598Z,41.35
2022-10-18T06:35:07.315Z,38.78
2022-10-18T06:36:15.572Z,40.75
2022-10-18T06:37:17.951Z,38.22
2022-10-18T06:38:20.129Z,36.53
2022-10-18T06:39:22.483Z,38.25
2022-10-18T06:40:24.691Z,34.55
2022-10-18T06:41:27.036Z,36.80
2022-10-18T06:42:29.130Z,34.65
2022-10-18T06:43:31.338Z,31.05
2022-10-18T06:44:33.432Z,30.08
2022-10-18T06:45:35.697Z,31.25
2022-10-18T06:46:37.848Z,30.48
2022-10-18T06:47:39.990Z,27.58
2022-10-18T06:48:42.231Z,26.05
2022-10-18T06:49:44.375Z,25.55
2022-10-18T06:51:00.742Z,26.83
2022-10-18T06:52:02.973Z,23.60
2022-10-18T06:53:06.505Z,22.35
2022-10-18T06:54:19.308Z,21.67
2022-10-18T06:55:21.627Z,21.23
2022-10-18T06:56:23.831Z,19.75
2022-10-18T06:57:26.162Z,19.83
2022-10-18T06:58:34.480Z,18.98
2022-10-18T06:59:36.873Z,18.23
2022-10-18T07:00:39.677Z,17.92
2022-10-18T07:01:42.036Z,17.63
2022-10-18T07:02:44.348Z,18.00
2022-10-18T07:03:48.107Z,18.60
2022-10-18T07:04:50.369Z,18.40
2022-10-18T07:05:52.642Z,16.50
2022-10-18T07:06:55.129Z,17.75
2022-10-18T07:07:57.720Z,17.05
2022-10-18T07:09:00.395Z,17.48
2022-10-18T07:10:02.632Z,18.13
2022-10-18T07:11:06.639Z,16.95
2022-10-18T07:13:31.426Z,17.27
2022-10-18T07:14:34.012Z,17.00
2022-10-18T07:15:38.787Z,17.08
2022-10-18T07:16:41.129Z,18.15
2022-10-18T07:17:45.804Z,16.30
2022-10-18T07:18:51.508Z,16.30
2022-10-18T07:19:53.752Z,17.42
2022-10-18T07:20:56.206Z,17.38
2022-10-18T07:21:58.427Z,16.38
2022-10-18T07:23:00.669Z,16.52
2022-10-18T07:24:02.981Z,17.63
2022-10-18T07:25:06.349Z,16.73
2022-10-18T07:26:33.986Z,16.83
2022-10-18T07:27:41.723Z,16.83
2022-10-18T07:28:48.307Z,16.23
2022-10-18T07:29:50.924Z,16.55
2022-10-18T07:30:53.131Z,16.65
2022-10-18T07:31:55.597Z,15.98
2022-10-18T07:32:57.845Z,16.67
2022-10-18T07:34:00.186Z,15.70
2022-10-18T07:35:03.220Z,15.77
2022-10-18T07:36:07.848Z,16.45
2022-10-18T07:37:10.329Z,16.77
2022-10-18T07:38:12.891Z,15.68
2022-10-18T07:39:15.436Z,16.25
2022-10-18T07:40:17.829Z,16.63
2022-10-18T07:41:20.965Z,17.55
2022-10-18T07:42:23.603Z,15.80
2022-10-18T07:43:26.340Z,17.38
2022-10-18T07:44:28.615Z,17.77
2022-10-18T07:45:32.340Z,16.88
2022-10-18T07:46:35.021Z,17.27
2022-10-18T07:47:37.744Z,17.83
2022-10-18T07:48:40.852Z,18.23
2022-10-18T07:49:43.436Z,17.48
2022-10-18T07:50:45.692Z,17.00
2022-10-18T07:51:48.086Z,18.30
2022-10-18T07:52:50.701Z,17.10
2022-10-18T07:53:52.985Z,17.40
2022-10-18T07:54:55.209Z,17.73
2022-10-18T07:56:21.387Z,17.45
2022-10-18T07:57:24.703Z,18.77
2022-10-18T07:58:27.272Z,18.00
2022-10-18T07:59:29.841Z,16.55
2022-10-18T08:00:32.088Z,17.45
2022-10-18T08:01:34.621Z,18.08
2022-10-18T08:02:37.076Z,17.95
2022-10-18T08:03:39.591Z,18.05
2022-10-18T08:04:41.887Z,18.45
2022-10-18T08:05:44.220Z,16.38
2022-10-18T08:06:46.623Z,18.67
2022-10-18T08:07:48.990Z,17.92
2022-10-18T08:08:51.415Z,17.90
2022-10-18T08:09:53.637Z,18.55
2022-10-18T08:10:56.319Z,16.23
2022-10-18T08:11:58.655Z,17.40
2022-10-18T08:13:00.921Z,17.45
2022-10-18T08:14:03.162Z,17.00
2022-10-18T08:15:05.969Z,17.35
2022-10-18T08:16:18.068Z,17.38
2022-10-18T08:17:20.343Z,16.42
2022-10-18T08:18:27.405Z,17.13
2022-10-18T08:19:29.772Z,16.80
2022-10-18T08:20:33.443Z,15.02
2022-10-18T08:21:35.715Z,16.33
2022-10-18T08:22:38.031Z,17.38
2022-10-18T08:23:41.006Z,17.42
2022-10-18T08:24:43.308Z,17.73
2022-10-18T08:25:45.577Z,18.73
2022-10-18T08:26:49.576Z,17.10
2022-10-18T08:27:51.829Z,20.08
2022-10-18T08:29:10.211Z,17.83
2022-10-18T08:30:17.866Z,15.32
2022-10-18T08:31:20.397Z,15.68
2022-10-18T08:32:22.587Z,15.32
2022-10-18T08:33:24.819Z,15.75
2022-10-18T08:34:27.217Z,16.27
2022-10-18T08:35:29.574Z,15.15
2022-10-18T08:36:31.849Z,16.00
2022-10-18T08:37:34.877Z,15.63
2022-10-18T08:38:40.251Z,15.85
2022-10-18T08:39:42.647Z,15.77
2022-10-18T08:40:44.918Z,15.73
2022-10-18T08:41:53.007Z,15.98
2022-10-18T08:43:01.376Z,17.08
2022-10-18T08:44:16.078Z,15.27
2022-10-18T08:45:37.406Z,16.77
2022-10-18T08:46:46.032Z,15.60
2022-10-18T08:47:52.115Z,15.68
2022-10-18T08:48:57.237Z,15.93
2022-10-18T08:50:13.643Z,16.20
2022-10-18T08:51:26.471Z,15.63
2022-10-18T08:53:54.660Z,16.08
2022-10-18T08:55:18.827Z,14.95
2022-10-18T08:56:24.360Z,14.45
2022-10-18T08:57:26.757Z,14.68
2022-10-18T08:58:32.324Z,15.43
2022-10-18T08:59:39.740Z,14.55
2022-10-18T09:01:11.821Z,14.52
2022-10-18T09:02:33.533Z,14.30
2022-10-18T09:03:44.748Z,13.48
2022-10-18T09:04:50.303Z,13.52
2022-10-18T09:05:56.616Z,13.80
2022-10-18T09:07:17.581Z,14.60
2022-10-18T09:08:22.816Z,15.00
2022-10-18T09:09:28.089Z,13.90
2022-10-18T09:10:34.128Z,13.82
2022-10-18T09:11:39.452Z,13.38
2022-10-18T09:12:42.937Z,12.20
2022-10-18T09:14:03.366Z,12.95
2022-10-18T09:15:14.954Z,13.48
2022-10-18T09:16:36.291Z,15.57
2022-10-18T09:17:53.321Z,13.40
2022-10-18T09:19:43.005Z,12.32
2022-10-18T09:20:57.973Z,13.45
2022-10-18T09:22:16.849Z,13.55
2022-10-18T09:23:29.448Z,12.82
2022-10-18T09:24:58.944Z,12.90
2022-10-18T09:26:14.258Z,13.20
2022-10-18T09:27:19.799Z,13.50
2022-10-18T09:28:52.041Z,13.80
2022-10-18T09:30:00.326Z,12.43
2022-10-18T09:31:10.592Z,12.02
2022-10-18T09:32:25.649Z,12.90
2022-10-18T09:33:45.380Z,12.52
2022-10-18T09:34:55.735Z,13.68
2022-10-18T09:36:01.501Z,12.85
2022-10-18T09:37:11.505Z,12.82
2022-10-18T09:38:18.685Z,13.93
2022-10-18T09:39:26.693Z,13.20
2022-10-18T09:40:32.677Z,15.20
2022-10-18T09:41:37.967Z,12.88
2022-10-18T09:42:47.923Z,12.60
2022-10-18T09:45:40.102Z,12.25
2022-10-18T09:46:49.368Z,11.18
2022-10-18T09:48:33.334Z,11.73
2022-10-18T09:49:45.783Z,12.75
2022-10-18T09:51:00.801Z,11.02
2022-10-18T09:52:08.681Z,11.85
2022-10-18T09:53:12.384Z,12.73
2022-10-18T09:54:17.705Z,11.73
2022-10-18T09:55:25.756Z,11.82
2022-10-18T09:56:39.420Z,12.93
2022-10-18T09:57:50.354Z,11.10
2022-10-18T09:58:52.684Z,12.50
2022-10-18T09:59:54.961Z,12.00
2022-10-18T10:00:57.983Z,11.68
2022-10-18T10:02:00.630Z,13.38
2022-10-18T10:03:11.312Z,11.95
2022-10-18T10:04:14.588Z,14.45
2022-10-18T10:05:16.784Z,12.65
2022-10-18T10:06:25.464Z,12.43
2022-10-18T10:07:35.268Z,12.85
2022-10-18T10:08:42.549Z,11.25
2022-10-18T10:10:06.813Z,12.70
2022-10-18T10:11:38.702Z,11.98
2022-10-18T10:12:41.363Z,13.13
2022-10-18T10:13:43.597Z,12.40
2022-10-18T10:14:45.848Z,12.38
2022-10-18T10:15:55.165Z,13.00
2022-10-18T10:17:05.959Z,12.25
2022-10-18T10:18:21.900Z,12.18
2022-10-18T10:19:29.558Z,12.05
2022-10-18T10:20:35.345Z,11.30
2022-10-18T10:21:40.789Z,10.13
2022-10-18T10:22:46.861Z,10.85
2022-10-18T10:23:53.894Z,10.38
2022-10-18T10:24:56.429Z,9.88
2022-10-18T10:26:06.771Z,10.70
2022-10-18T10:27:18.168Z,11.15
2022-10-18T10:28:26.733Z,11.38
2022-10-18T10:29:47.192Z,11.00
2022-10-18T10:30:49.843Z,10.07
2022-10-18T10:32:04.777Z,12.02
2022-10-18T10:33:39.344Z,11.27
2022-10-18T10:34:44.646Z,11.82
2022-10-18T10:35:58.851Z,12.00
2022-10-18T10:37:02.815Z,11.25
2022-10-18T10:38:06.110Z,11.48
2022-10-18T10:39:18.884Z,11.75
2022-10-18T10:40:28.582Z,11.93
2022-10-18T10:42:38.767Z,10.88
2022-10-18T10:43:45.232Z,11.60
2022-10-18T10:44:55.282Z,11.82
2022-10-18T10:45:59.946Z,11.00
2022-10-18T10:47:02.948Z,10.93
2022-10-18T10:48:15.328Z,10.77
2022-10-18T10:49:40.700Z,10.20
2022-10-18T10:51:14.692Z,10.27
2022-10-18T10:52:27.355Z,11.68
2022-10-18T10:53:57.320Z,10.40
2022-10-18T10:55:06.181Z,10.77
2022-10-18T10:56:25.616Z,11.55
2022-10-18T10:57:29.176Z,11.18
2022-10-18T10:59:48.170Z,10.55
2022-10-18T11:00:50.368Z,10.80
2022-10-18T11:02:14.313Z,11.73
2022-10-18T11:03:30.077Z,12.43
2022-10-18T11:04:32.763Z,11.88
2022-10-18T11:05:44.314Z,13.02
2022-10-18T11:06:52.400Z,12.68
2022-10-18T11:08:02.494Z,11.50
2022-10-18T11:09:15.879Z,11.85
2022-10-18T11:10:21.947Z,12.60
2022-10-18T11:11:31.661Z,12.55
2022-10-18T11:12:39.488Z,11.45
2022-10-18T11:14:07.390Z,12.20
2022-10-18T11:15:18.510Z,11.98
2022-10-18T11:16:39.437Z,13.68
2022-10-18T11:19:11.496Z,12.82
2022-10-18T11:20:19.743Z,13.18
2022-10-18T11:21:32.563Z,13.05
2022-10-18T11:22:41.845Z,12.23
2022-10-18T11:23:45.432Z,13.65
2022-10-18T11:24:48.559Z,12.43
2022-10-18T11:26:11.931Z,12.75
2022-10-18T11:27:28.518Z,12.38
2022-10-18T11:28:37.155Z,13.20
2022-10-18T11:29:54.395Z,12.75
2022-10-18T11:31:19.167Z,13.95
2022-10-18T11:32:21.426Z,12.88
2022-10-18T11:33:56.276Z,11.82
2022-10-18T11:34:56.064Z,12.75
2022-10-18T11:36:06.854Z,12.27
2022-10-18T11:37:32.179Z,12.25
2022-10-18T11:39:03.323Z,12.80
2022-10-18T11:40:33.758Z,12.65
2022-10-18T11:41:49.824Z,12.48
2022-10-18T11:43:17.098Z,12.05
2022-10-18T11:44:33.047Z,13.35
2022-10-18T11:46:28.010Z,12.32
2022-10-18T11:47:55.052Z,12.32
2022-10-18T11:49:18.542Z,11.73
2022-10-18T11:52:13.840Z,11.82
2022-10-18T11:53:34.004Z,12.48
2022-10-18T11:54:43.625Z,10.95
2022-10-18T11:55:45.740Z,11.18
2022-10-18T11:56:56.353Z,10.73
2022-10-18T11:58:11.799Z,11.18
2022-10-18T11:59:26.110Z,10.68
2022-10-18T12:00:40.584Z,10.75
2022-10-18T12:02:15.348Z,11.10
2022-10-18T12:03:40.145Z,9.65
2022-10-18T12:04:58.397Z,10.02
2022-10-18T12:06:21.590Z,9.63
2022-10-18T12:07:32.346Z,10.77
2022-10-18T12:08:40.278Z,9.20
2022-10-18T12:09:46.323Z,9.57
2022-10-18T12:11:04.457Z,9.88
2022-10-18T12:12:18.054Z,9.73
2022-10-18T12:13:41.704Z,9.25
2022-10-18T12:15:03.127Z,8.82
2022-10-18T12:16:08.134Z,9.38
2022-10-18T12:17:41.800Z,9.60
2022-10-18T12:18:56.413Z,8.93
2022-10-18T12:20:04.768Z,8.63
2022-10-18T12:21:11.160Z,7.90
2022-10-18T12:22:28.711Z,9.35
2022-10-18T12:23:43.067Z,8.23
2022-10-18T12:24:45.278Z,8.45
2022-10-18T12:25:52.969Z,9.93
2022-10-18T12:27:00.735Z,8.18
2022-10-18T12:28:21.705Z,8.30
2022-10-18T12:29:34.835Z,8.57
2022-10-18T12:30:43.020Z,8.50
2022-10-18T12:31:54.803Z,8.75
2022-10-18T12:33:28.156Z,9.35
2022-10-18T12:34:36.316Z,8.73
2022-10-18T12:36:22.813Z,8.40
2022-10-18T12:37:26.643Z,8.30
2022-10-18T12:38:33.611Z,8.32
2022-10-18T12:40:08.680Z,7.85
2022-10-18T12:41:19.597Z,8.38
2022-10-18T12:42:24.300Z,7.80
2022-10-18T12:43:36.704Z,8.27
2022-10-18T12:44:39.112Z,7.53
2022-10-18T12:45:54.989Z,7.70
2022-10-18T12:47:03.264Z,7.15
2022-10-18T12:48:08.051Z,7.47
2022-10-18T12:49:12.979Z,7.57
2022-10-18T12:50:37.722Z,7.72
2022-10-18T12:52:04.835Z,7.30
2022-10-18T12:53:18.406Z,8.48
2022-10-18T12:54:39.800Z,7.78
2022-10-18T12:55:48.448Z,8.20
2022-10-18T12:56:51.050Z,8.10
2022-10-18T12:57:53.539Z,7.50
2022-10-18T12:59:14.734Z,7.82
2022-10-18T13:00:32.191Z,7.82
2022-10-18T13:01:52.376Z,7.82
2022-10-18T13:03:10.338Z,7.95
2022-10-18T13:04:35.323Z,7.60
2022-10-18T13:05:56.579Z,8.55
2022-10-18T13:06:59.962Z,8.73
2022-10-18T13:08:27.941Z,9.35
2022-10-18T13:09:35.704Z,8.88
2022-10-18T13:10:38.339Z,8.63
2022-10-18T13:11:40.637Z,9.77
2022-10-18T13:13:39.761Z,9.20
2022-10-18T13:15:24.891Z,9.07
2022-10-18T13:16:36.496Z,8.70
2022-10-18T13:17:51.652Z,8.20
2022-10-18T13:18:59.556Z,8.82
2022-10-18T13:20:28.167Z,8.02
2022-10-18T13:21:45.435Z,8.77
2022-10-18T13:23:25.114Z,8.25
2022-10-18T13:24:42.355Z,7.72
2022-10-18T13:26:01.573Z,8.63
2022-10-18T13:27:36.809Z,7.95
2022-10-18T13:28:48.277Z,9.18
2022-10-18T13:30:17.593Z,8.52
2022-10-18T13:31:28.775Z,8.13
2022-10-18T13:33:14.894Z,7.43
2022-10-18T13:34:33.370Z,8.23
2022-10-18T13:35:38.563Z,7.82
2022-10-18T13:36:42.501Z,7.95
2022-10-18T13:37:59.153Z,7.38
2022-10-18T13:39:05.146Z,7.53
2022-10-18T13:40:37.135Z,7.85
2022-10-18T13:41:42.237Z,7.28
2022-10-18T13:42:51.020Z,7.60
2022-10-18T13:43:53.397Z,7.93
2022-10-18T13:45:15.568Z,6.50
2022-10-18T13:46:18.129Z,7.32
2022-10-18T13:47:35.152Z,7.65
2022-10-18T13:48:37.392Z,6.85
2022-10-18T13:49:39.540Z,7.25
2022-10-18T13:50:43.374Z,6.65
2022-10-18T13:53:22.809Z,6.72
2022-10-18T13:54:52.304Z,6.95
2022-10-18T13:56:19.303Z,6.47
2022-10-18T13:57:52.508Z,6.30
2022-10-18T13:59:18.728Z,8.20
2022-10-18T14:00:49.079Z,7.13
2022-10-18T14:02:13.870Z,6.78
2022-10-18T14:04:04.235Z,6.35
2022-10-18T14:05:25.987Z,6.40
2022-10-18T14:06:37.612Z,6.72
2022-10-18T14:07:42.842Z,6.07
2022-10-18T14:11:02.722Z,6.20
2022-10-18T14:12:20.507Z,6.28
2022-10-18T14:13:28.255Z,6.40
2022-10-18T14:14:58.044Z,6.22
2022-10-18T14:16:10.250Z,5.53
2022-10-18T14:18:51.679Z,6.10
2022-10-18T14:20:15.647Z,6.22
2022-10-18T14:21:30.229Z,6.60
2022-10-18T14:22:43.940Z,6.75
2022-10-18T14:23:46.735Z,7.05
2022-10-18T14:24:54.365Z,6.53
2022-10-18T14:26:07.504Z,6.68
2022-10-18T14:27:20.650Z,5.57
2022-10-18T14:28:36.310Z,6.28
2022-10-18T14:29:48.059Z,6.50
2022-10-18T14:31:06.685Z,5.47
2022-10-18T14:32:11.605Z,6.40
2022-10-18T14:33:28.547Z,6.00
2022-10-18T14:34:30.977Z,6.20
2022-10-18T14:35:35.832Z,5.53
2022-10-18T14:36:41.586Z,5.85
2022-10-18T14:37:50.361Z,5.88
2022-10-18T14:39:07.846Z,6.10
2022-10-18T14:40:25.982Z,5.93
2022-10-18T14:41:47.530Z,5.68
2022-10-18T14:42:49.688Z,6.25
2022-10-18T14:43:53.299Z,6.15
2022-10-18T14:44:56.665Z,6.20
2022-10-18T14:46:24.281Z,6.93
2022-10-18T14:47:28.821Z,6.18
2022-10-18T14:48:31.557Z,7.00
2022-10-18T14:49:33.995Z,6.05
2022-10-18T14:50:36.937Z,6.82
2022-10-18T14:51:43.692Z,6.82
2022-10-18T14:52:46.105Z,7.53
2022-10-18T14:53:49.175Z,6.63
2022-10-18T14:54:54.345Z,7.28
2022-10-18T14:56:01.045Z,6.78
2022-10-18T14:57:05.962Z,7.00
2022-10-18T14:58:16.451Z,7.80